createdAt,value
2019-02-04T00:00:17.235Z,100.00
2019-02-04T00:02:45.765Z,100.00
2019-02-04T00:05:14.088Z,100.00
2019-02-04T00:07:42.360Z,100.00
2019-02-04T00:10:11.967Z,100.00
2019-02-04T00:12:40.231Z,100.00
2019-02-04T00:15:09.433Z,100.00
2019-02-04T00:17:38.060Z,100.00
2019-02-04T00:20:09.355Z,100.00
2019-02-04T00:22:37.613Z,100.00
2019-02-04T00:25:06.611Z,100.00
2019-02-04T00:27:34.889Z,100.00
2019-02-04T00:30:04.788Z,100.00
2019-02-04T00:32:33.048Z,100.00
2019-02-04T00:35:01.300Z,100.00
2019-02-04T00:37:29.559Z,100.00
2019-02-04T00:39:57.853Z,100.00
2019-02-04T00:42:26.103Z,100.00
2019-02-04T00:44:54.375Z,100.00
2019-02-04T00:47:22.904Z,100.00
2019-02-04T00:49:51.264Z,100.00
2019-02-04T00:52:19.529Z,100.00
2019-02-04T00:54:47.780Z,100.00
2019-02-04T00:57:16.037Z,100.00
2019-02-04T00:59:44.306Z,100.00
2019-02-04T01:02:12.833Z,100.00
2019-02-04T01:04:41.176Z,100.00
2019-02-04T01:07:09.501Z,100.00
2019-02-04T01:09:37.789Z,100.00
2019-02-04T01:12:06.117Z,100.00
2019-02-04T01:14:34.385Z,100.00
2019-02-04T01:17:03.792Z,100.00
2019-02-04T01:19:32.088Z,100.00
2019-02-04T01:22:00.356Z,100.00
2019-02-04T01:24:28.624Z,100.00
2019-02-04T01:26:56.885Z,100.00
2019-02-04T01:29:25.142Z,100.00
2019-02-04T01:31:53.395Z,100.00
2019-02-04T01:34:21.853Z,100.00
2019-02-04T01:36:50.124Z,100.00
2019-02-04T01:39:18.379Z,100.00
2019-02-04T01:41:46.641Z,100.00
2019-02-04T01:44:14.901Z,100.00
2019-02-04T01:46:43.160Z,100.00
2019-02-04T01:49:11.612Z,100.00
2019-02-04T01:51:39.874Z,100.00
2019-02-04T01:54:08.121Z,100.00
2019-02-04T01:56:36.384Z,100.00
2019-02-04T01:59:04.655Z,100.00
2019-02-04T02:01:32.913Z,100.00
2019-02-04T02:04:01.255Z,100.00
2019-02-04T02:06:29.512Z,100.00
2019-02-04T02:08:57.774Z,100.00
2019-02-04T02:11:26.038Z,100.00
2019-02-04T02:13:54.314Z,100.00
2019-02-04T02:16:22.562Z,100.00
2019-02-04T02:18:50.819Z,100.00
2019-02-04T02:21:19.156Z,100.00
2019-02-04T02:23:47.366Z,100.00
2019-02-04T02:26:15.620Z,100.00
2019-02-04T02:28:43.900Z,100.00
2019-02-04T02:31:12.165Z,100.00
2019-02-04T02:33:40.426Z,100.00
2019-02-04T02:36:08.882Z,100.00
2019-02-04T02:38:37.135Z,100.00
2019-02-04T02:41:05.388Z,100.00
2019-02-04T02:43:33.665Z,100.00
2019-02-04T02:46:01.919Z,100.00
2019-02-04T02:48:30.192Z,100.00
2019-02-04T02:50:58.454Z,100.00
2019-02-04T02:53:26.733Z,100.00
2019-02-04T02:55:54.982Z,100.00
2019-02-04T02:58:23.252Z,100.00
2019-02-04T03:00:51.510Z,100.00
2019-02-04T03:03:19.774Z,100.00
2019-02-04T03:05:48.047Z,100.00
2019-02-04T03:08:16.494Z,100.00
2019-02-04T03:10:44.751Z,100.00
2019-02-04T03:13:13.010Z,100.00
2019-02-04T03:15:41.270Z,100.00
2019-02-04T03:18:09.544Z,100.00
2019-02-04T03:20:37.794Z,100.00
2019-02-04T03:23:06.226Z,100.00
2019-02-04T03:25:34.496Z,100.00
2019-02-04T03:28:02.743Z,100.00
2019-02-04T03:30:32.760Z,100.00
2019-02-04T03:33:01.077Z,100.00
2019-02-04T03:35:29.348Z,100.00
2019-02-04T03:37:57.978Z,100.00
2019-02-04T03:40:28.517Z,100.00
2019-02-04T03:42:56.851Z,100.00
2019-02-04T03:45:25.118Z,100.00
2019-02-04T03:48:04.332Z,100.00
2019-02-04T03:50:23.715Z,100.00
2019-02-04T03:52:52.255Z,100.00
2019-02-04T03:55:20.586Z,100.00
2019-02-04T03:57:48.859Z,100.00
2019-02-04T04:00:33.928Z,100.00
2019-02-04T04:03:02.529Z,100.00
2019-02-04T04:05:30.803Z,100.00
2019-02-04T04:07:59.136Z,100.00
2019-02-04T04:10:27.415Z,100.00
2019-02-04T04:12:55.751Z,100.00
2019-02-04T04:15:24.039Z,100.00
2019-02-04T04:17:52.306Z,100.00
2019-02-04T04:20:21.041Z,100.00
2019-02-04T04:22:49.295Z,100.00
2019-02-04T04:25:18.218Z,100.00
2019-02-04T04:27:46.550Z,100.00
2019-02-04T04:30:20.153Z,100.00
2019-02-04T04:32:48.413Z,100.00
2019-02-04T04:35:16.820Z,100.00
2019-02-04T04:37:45.086Z,100.00
2019-02-04T04:40:15.159Z,100.00
2019-02-04T04:42:43.638Z,100.00
2019-02-04T04:45:14.824Z,100.00
2019-02-04T04:47:43.182Z,100.00
2019-02-04T04:50:11.422Z,100.00
2019-02-04T04:52:39.678Z,100.00
2019-02-04T04:55:13.530Z,100.00
2019-02-04T04:57:41.792Z,100.00
2019-02-04T05:00:13.170Z,100.00
2019-02-04T05:02:41.812Z,100.00
2019-02-04T05:05:11.931Z,100.00
2019-02-04T05:07:40.237Z,100.00
2019-02-04T05:10:11.541Z,100.00
2019-02-04T05:12:39.801Z,100.00
2019-02-04T05:15:11.118Z,100.00
2019-02-04T05:17:39.555Z,100.00
2019-02-04T05:20:11.177Z,100.00
2019-02-04T05:22:39.446Z,100.00
2019-02-04T05:25:08.452Z,100.00
2019-02-04T05:27:36.714Z,100.00
2019-02-04T05:30:08.155Z,100.00
2019-02-04T05:32:36.433Z,100.00
2019-02-04T05:35:05.001Z,100.00
2019-02-04T05:37:33.271Z,100.00
2019-02-04T05:40:01.563Z,100.00
2019-02-04T05:42:29.807Z,100.00
2019-02-04T05:44:58.067Z,100.00
2019-02-04T05:47:26.347Z,100.00
2019-02-04T05:49:54.617Z,100.00
2019-02-04T05:52:22.899Z,100.00
2019-02-04T05:54:51.155Z,100.00
2019-02-04T05:57:19.446Z,100.00
2019-02-04T05:59:47.809Z,100.00
2019-02-04T06:02:16.251Z,100.00
2019-02-04T06:04:44.531Z,100.00
2019-02-04T06:07:15.395Z,100.00
2019-02-04T06:09:42.797Z,100.00
2019-02-04T06:12:11.080Z,100.00
2019-02-04T06:14:39.354Z,100.00
2019-02-04T06:17:07.995Z,100.00
2019-02-04T06:19:36.272Z,100.00
2019-02-04T06:22:04.535Z,100.00
2019-02-04T06:24:32.827Z,100.00
2019-02-04T06:27:01.106Z,100.00
2019-02-04T06:29:30.334Z,100.00
2019-02-04T06:31:58.974Z,100.00
2019-02-04T06:34:27.265Z,100.00
2019-02-04T06:36:55.535Z,100.00
2019-02-04T06:39:23.823Z,100.00
2019-02-04T06:41:52.074Z,100.00
2019-02-04T06:44:20.346Z,100.00
2019-02-04T06:46:48.629Z,100.00
2019-02-04T06:49:17.152Z,100.00
2019-02-04T06:51:45.421Z,100.00
2019-02-04T06:54:13.710Z,100.00
2019-02-04T06:56:41.965Z,100.00
2019-02-04T06:59:10.248Z,100.00
2019-02-04T07:01:38.503Z,100.00
2019-02-04T07:04:07.175Z,100.00
2019-02-04T07:06:35.545Z,100.00
2019-02-04T07:09:05.616Z,100.00
2019-02-04T07:11:33.874Z,100.00
2019-02-04T07:14:02.164Z,100.00
2019-02-04T07:16:30.431Z,100.00
2019-02-04T07:18:58.904Z,100.00
2019-02-04T07:21:27.192Z,100.00
2019-02-04T07:23:55.467Z,100.00
2019-02-04T07:26:23.748Z,100.00
2019-02-04T07:28:52.015Z,100.00
2019-02-04T07:31:20.298Z,100.00
2019-02-04T07:33:50.257Z,100.00
2019-02-04T07:36:18.595Z,100.00
2019-02-04T07:38:46.884Z,100.00
2019-02-04T07:41:15.161Z,100.00
2019-02-04T07:43:43.477Z,100.00
2019-02-04T07:46:11.732Z,100.00
2019-02-04T07:48:39.990Z,100.00
2019-02-04T07:51:08.245Z,100.00
2019-02-04T07:53:36.510Z,100.00
2019-02-04T07:56:04.784Z,100.00
2019-02-04T07:58:33.054Z,100.00
2019-02-04T08:01:03.108Z,100.00
2019-02-04T08:03:32.118Z,100.00
2019-02-04T08:06:00.375Z,100.00
2019-02-04T08:08:28.828Z,100.00
2019-02-04T08:10:57.083Z,100.00
2019-02-04T08:13:28.010Z,100.00
2019-02-04T08:15:56.267Z,100.00
2019-02-04T08:18:24.550Z,100.00
2019-02-04T08:20:52.814Z,100.00
2019-02-04T08:23:21.421Z,100.00
2019-02-04T08:25:49.688Z,100.00
2019-02-04T08:28:17.959Z,100.00
2019-02-04T08:30:46.237Z,100.00
2019-02-04T08:33:14.498Z,100.00
2019-02-04T08:35:42.765Z,100.00
2019-02-04T08:38:11.031Z,100.00
2019-02-04T08:40:39.273Z,100.00
2019-02-04T08:43:07.548Z,100.00
2019-02-04T08:45:35.819Z,100.00
2019-02-04T08:48:04.221Z,100.00
2019-02-04T08:50:32.492Z,100.00
2019-02-04T08:53:00.773Z,100.00
2019-02-04T08:55:29.033Z,100.00
2019-02-04T08:57:57.369Z,100.00
2019-02-04T09:00:26.206Z,100.00
2019-02-04T09:02:54.472Z,100.00
2019-02-04T09:05:23.789Z,100.00
2019-02-04T09:07:52.384Z,100.00
2019-02-04T09:10:26.628Z,100.00
2019-02-04T09:12:55.167Z,100.00
2019-02-04T09:15:23.428Z,100.00
2019-02-04T09:17:51.867Z,100.00
2019-02-04T09:20:20.194Z,100.00
2019-02-04T09:22:48.613Z,100.00
2019-02-04T09:25:18.608Z,100.00
2019-02-04T09:27:46.868Z,100.00
2019-02-04T09:30:23.506Z,100.00
2019-02-04T09:32:51.779Z,100.00
2019-02-04T09:35:21.277Z,100.00
2019-02-04T09:37:49.540Z,100.00
2019-02-04T09:40:20.535Z,99.74
2019-02-04T09:42:49.067Z,99.66
2019-02-04T09:45:17.803Z,99.63
2019-02-04T09:47:46.226Z,99.13
2019-02-04T09:50:22.088Z,99.02
2019-02-04T09:52:50.410Z,98.33
2019-02-04T09:55:24.017Z,98.47
2019-02-04T09:57:52.264Z,97.92
2019-02-04T10:00:22.867Z,97.76
2019-02-04T10:02:51.123Z,97.33
2019-02-04T10:05:19.842Z,96.59
2019-02-04T10:07:48.094Z,96.04
2019-02-04T10:10:24.714Z,95.74
2019-02-04T10:12:53.043Z,95.45
2019-02-04T10:15:23.897Z,95.34
2019-02-04T10:17:52.223Z,94.96
2019-02-04T10:20:20.590Z,94.23
2019-02-04T10:22:49.036Z,93.82
2019-02-04T10:25:23.231Z,92.94
2019-02-04T10:27:51.525Z,92.65
2019-02-04T10:30:22.264Z,91.95
2019-02-04T10:32:50.603Z,91.53
2019-02-04T10:35:19.484Z,90.84
2019-02-04T10:37:49.621Z,90.53
2019-02-04T10:40:26.437Z,89.48
2019-02-04T10:42:54.736Z,89.73
2019-02-04T10:45:23.000Z,89.07
2019-02-04T10:47:51.374Z,88.76
2019-02-04T10:50:22.149Z,87.89
2019-02-04T10:52:50.425Z,87.92
2019-02-04T10:55:18.754Z,86.52
2019-02-04T10:57:46.988Z,86.12
2019-02-04T11:00:18.382Z,86.40
2019-02-04T11:02:46.656Z,85.74
2019-02-04T11:05:20.373Z,85.55
2019-02-04T11:07:48.667Z,85.36
2019-02-04T11:10:20.190Z,84.66
2019-02-04T11:12:48.514Z,83.96
2019-02-04T11:15:17.523Z,84.37
2019-02-04T11:17:45.779Z,84.11
2019-02-04T11:20:23.752Z,83.45
2019-02-04T11:22:52.291Z,83.13
2019-02-04T11:25:20.830Z,82.49
2019-02-04T11:27:49.303Z,82.60
2019-02-04T11:30:20.454Z,82.22
2019-02-04T11:32:49.176Z,82.31
2019-02-04T11:35:17.502Z,82.07
2019-02-04T11:37:45.712Z,82.21
2019-02-04T11:40:31.214Z,82.22
2019-02-04T11:42:59.518Z,81.80
2019-02-04T11:45:28.090Z,81.26
2019-02-04T11:47:56.360Z,81.73
2019-02-04T11:50:24.665Z,81.21
2019-02-04T11:52:52.927Z,81.09
2019-02-04T11:55:21.364Z,81.25
2019-02-04T11:57:49.624Z,81.63
2019-02-04T12:00:25.794Z,80.84
2019-02-04T12:02:54.886Z,80.89
2019-02-04T12:05:25.846Z,81.43
2019-02-04T12:07:54.184Z,81.03
2019-02-04T12:10:34.022Z,80.97
2019-02-04T12:13:02.566Z,80.68
2019-02-04T12:15:30.818Z,81.45
2019-02-04T12:17:59.075Z,81.24
2019-02-04T12:20:27.338Z,81.48
2019-02-04T12:22:55.616Z,81.49
2019-02-04T12:25:25.711Z,81.37
2019-02-04T12:27:54.782Z,80.71
2019-02-04T12:30:25.865Z,80.44
2019-02-04T12:32:54.238Z,80.34
2019-02-04T12:35:22.496Z,80.84
2019-02-04T12:37:50.742Z,81.04
2019-02-04T12:40:19.013Z,80.50
2019-02-04T12:42:47.433Z,80.35
2019-02-04T12:45:26.719Z,79.78
2019-02-04T12:47:55.145Z,80.28
2019-02-04T12:50:23.410Z,80.13
2019-02-04T12:52:51.677Z,79.75
2019-02-04T12:55:28.189Z,79.90
2019-02-04T12:57:56.580Z,79.29
2019-02-04T13:00:29.475Z,79.39
2019-02-04T13:02:58.111Z,79.43
2019-02-04T13:05:29.146Z,78.65
2019-02-04T13:07:57.396Z,78.10
2019-02-04T13:10:26.102Z,77.31
2019-02-04T13:12:54.348Z,77.85
2019-02-04T13:15:24.145Z,77.34
2019-02-04T13:17:53.031Z,77.50
2019-02-04T13:20:22.730Z,76.55
2019-02-04T13:22:51.152Z,76.59
2019-02-04T13:25:22.307Z,76.79
2019-02-04T13:27:50.545Z,76.61
2019-02-04T13:30:21.303Z,76.17
2019-02-04T13:32:49.568Z,75.70
2019-02-04T13:35:17.887Z,76.36
2019-02-04T13:37:46.144Z,75.93
2019-02-04T13:40:17.621Z,76.01
2019-02-04T13:42:45.873Z,75.27
2019-02-04T13:45:18.929Z,75.91
2019-02-04T13:47:47.502Z,75.60
2019-02-04T13:50:17.689Z,75.29
2019-02-04T13:52:46.219Z,75.37
2019-02-04T13:55:17.414Z,75.49
2019-02-04T13:57:45.668Z,75.04
2019-02-04T14:00:15.666Z,74.69
2019-02-04T14:02:43.988Z,74.07
2019-02-04T14:05:12.310Z,74.11
2019-02-04T14:07:40.779Z,74.24
2019-02-04T14:10:26.086Z,74.21
2019-02-04T14:12:54.408Z,74.40
2019-02-04T14:15:23.219Z,74.24
2019-02-04T14:17:51.475Z,74.18
2019-02-04T14:20:22.065Z,73.95
2019-02-04T14:22:53.311Z,74.32
2019-02-04T14:25:20.524Z,74.30
2019-02-04T14:27:48.779Z,74.82
2019-02-04T14:30:34.856Z,74.82
2019-02-04T14:33:03.390Z,74.68
2019-02-04T14:35:31.708Z,75.14
2019-02-04T14:38:00.116Z,74.74
2019-02-04T14:40:28.432Z,74.07
2019-02-04T14:43:08.770Z,74.86
2019-02-04T14:45:46.120Z,74.49
2019-02-04T14:48:33.737Z,74.87
2019-02-04T14:51:07.961Z,75.46
2019-02-04T14:53:55.449Z,74.74
2019-02-04T14:56:47.153Z,74.92
2019-02-04T14:59:18.588Z,74.88
2019-02-04T15:02:17.109Z,74.72
2019-02-04T15:05:12.714Z,74.31
2019-02-04T15:08:12.479Z,74.33
2019-02-04T15:10:43.896Z,74.29
2019-02-04T15:13:46.670Z,74.60
2019-02-04T15:16:29.616Z,73.79
2019-02-04T15:19:27.885Z,73.59
2019-02-04T15:21:59.395Z,73.70
2019-02-04T15:24:39.863Z,74.22
2019-02-04T15:27:29.079Z,74.31
2019-02-04T15:30:12.303Z,74.52
2019-02-04T15:32:46.147Z,74.87
2019-02-04T15:35:23.109Z,74.24
2019-02-04T15:41:12.213Z,74.78
2019-02-04T15:43:52.737Z,75.25
2019-02-04T15:46:36.640Z,74.91
2019-02-04T15:49:31.991Z,75.33
2019-02-04T15:52:01.076Z,74.68
2019-02-04T15:54:29.331Z,75.35
2019-02-04T15:56:57.585Z,74.97
2019-02-04T15:59:25.843Z,75.34
2019-02-04T16:01:54.379Z,75.72
2019-02-04T16:04:35.768Z,74.75
2019-02-04T16:07:06.256Z,75.10
2019-02-04T16:09:34.493Z,75.74
2019-02-04T16:12:02.756Z,75.55
2019-02-04T16:14:31.282Z,75.56
2019-02-04T16:16:59.609Z,75.81
2019-02-04T16:19:27.868Z,75.23
2019-02-04T16:21:56.137Z,75.19
2019-02-04T16:24:24.379Z,75.43
2019-02-04T16:26:52.628Z,75.77
2019-02-04T16:29:21.214Z,76.22
2019-02-04T16:31:49.520Z,76.13
2019-02-04T16:34:17.788Z,76.22
2019-02-04T16:36:46.040Z,76.46
2019-02-04T16:39:14.292Z,76.40
2019-02-04T16:41:42.529Z,76.45
2019-02-04T16:44:10.789Z,76.75
2019-02-04T16:46:39.119Z,76.56
2019-02-04T16:49:07.362Z,76.54
2019-02-04T16:51:35.610Z,76.99
2019-02-04T16:54:03.926Z,76.62
2019-02-04T16:56:32.195Z,77.15
2019-02-04T16:59:00.430Z,76.94
2019-02-04T17:01:28.696Z,77.42
2019-02-04T17:03:57.145Z,76.89
2019-02-04T17:06:25.384Z,77.34
2019-02-04T17:08:53.636Z,77.08
2019-02-04T17:11:21.898Z,76.29
2019-02-04T17:13:50.484Z,77.13
2019-02-04T17:16:18.729Z,76.98
2019-02-04T17:18:46.973Z,77.19
2019-02-04T17:21:15.230Z,76.99
2019-02-04T17:23:43.479Z,76.97
2019-02-04T17:26:11.718Z,77.03
2019-02-04T17:28:39.959Z,77.73
2019-02-04T17:31:08.219Z,77.02
2019-02-04T17:33:36.481Z,76.80
2019-02-04T17:36:05.088Z,77.11
2019-02-04T17:38:33.347Z,76.87
2019-02-04T17:41:01.620Z,77.01
2019-02-04T17:43:29.855Z,77.25
2019-02-04T17:45:58.124Z,77.06
2019-02-04T17:48:26.375Z,77.01
2019-02-04T17:50:54.626Z,77.32
2019-02-04T17:53:33.602Z,77.37
2019-02-04T17:55:52.876Z,76.92
2019-02-04T17:58:21.119Z,77.54
2019-02-04T18:00:50.902Z,77.18
2019-02-04T18:03:19.324Z,77.30
2019-02-04T18:05:47.605Z,77.14
2019-02-04T18:08:16.192Z,77.18
2019-02-04T18:10:44.438Z,76.37
2019-02-04T18:13:12.696Z,76.40
2019-02-04T18:15:41.035Z,76.87
2019-02-04T18:18:09.358Z,76.75
2019-02-04T18:20:37.610Z,76.22
2019-02-04T18:23:06.133Z,75.76
2019-02-04T18:25:34.430Z,76.58
2019-02-04T18:28:02.636Z,76.98
2019-02-04T18:30:31.191Z,76.84
2019-02-04T18:32:59.445Z,76.38
2019-02-04T18:35:27.973Z,76.86
2019-02-04T18:37:56.227Z,76.67
2019-02-04T18:40:24.768Z,76.61
2019-02-04T18:42:53.410Z,76.89
2019-02-04T18:45:36.020Z,76.99
2019-02-04T18:48:05.210Z,76.96
2019-02-04T18:50:33.827Z,76.70
2019-02-04T18:53:02.082Z,76.13
2019-02-04T18:55:32.199Z,75.98
2019-02-04T18:58:00.486Z,75.49
2019-02-04T19:00:31.048Z,75.51
2019-02-04T19:03:00.544Z,75.47
2019-02-04T19:05:29.345Z,75.95
2019-02-04T19:07:57.665Z,75.83
2019-02-04T19:10:25.914Z,75.77
2019-02-04T19:12:54.154Z,75.65
2019-02-04T19:15:25.298Z,76.06
2019-02-04T19:17:58.815Z,76.58
2019-02-04T19:20:27.141Z,76.87
2019-02-04T19:22:55.391Z,77.13
2019-02-04T19:25:23.666Z,77.75
2019-02-04T19:27:52.650Z,77.47
2019-02-04T19:30:32.376Z,77.89
2019-02-04T19:33:00.632Z,77.68
2019-02-04T19:35:30.361Z,77.99
2019-02-04T19:37:58.687Z,78.14
2019-02-04T19:40:26.933Z,78.13
2019-02-04T19:42:55.208Z,78.37
2019-02-04T19:45:25.700Z,78.54
2019-02-04T19:47:54.304Z,79.56
2019-02-04T19:50:25.741Z,80.18
2019-02-04T19:52:54.010Z,80.33
2019-02-04T19:55:22.572Z,80.74
2019-02-04T19:57:51.767Z,81.23
2019-02-04T20:00:21.267Z,80.74
2019-02-04T20:02:50.731Z,80.73
2019-02-04T20:05:20.936Z,79.95
2019-02-04T20:07:49.363Z,79.12
2019-02-04T20:10:19.460Z,78.84
2019-02-04T20:12:47.703Z,78.89
2019-02-04T20:15:23.761Z,78.61
2019-02-04T20:17:53.711Z,78.32
2019-02-04T20:20:22.696Z,77.91
2019-02-04T20:22:50.966Z,77.82
2019-02-04T20:25:27.047Z,77.31
2019-02-04T20:27:55.867Z,77.53
2019-02-04T20:30:28.247Z,77.49
2019-02-04T20:32:58.215Z,77.40
2019-02-04T20:35:28.165Z,77.45
2019-02-04T20:37:56.443Z,77.28
2019-02-04T20:40:26.048Z,76.81
2019-02-04T20:42:54.291Z,76.94
2019-02-04T20:45:22.943Z,77.08
2019-02-04T20:47:54.385Z,77.12
2019-02-04T20:50:28.218Z,77.17
2019-02-04T20:52:57.587Z,77.71
2019-02-04T20:55:29.349Z,77.93
2019-02-04T20:57:57.969Z,78.09
2019-02-04T21:00:28.645Z,78.37
2019-02-04T21:02:56.960Z,78.41
2019-02-04T21:05:27.462Z,78.39
2019-02-04T21:07:55.718Z,78.83
2019-02-04T21:10:26.686Z,78.96
2019-02-04T21:12:55.231Z,78.98
2019-02-04T21:15:23.847Z,79.09
2019-02-04T21:17:52.246Z,79.48
2019-02-04T21:20:26.316Z,79.43
2019-02-04T21:22:54.562Z,79.21
2019-02-04T21:25:22.814Z,78.86
2019-02-04T21:27:51.415Z,78.86
2019-02-04T21:30:27.498Z,78.99
2019-02-04T21:32:56.013Z,78.87
2019-02-04T21:35:24.264Z,78.67
2019-02-04T21:37:52.515Z,78.59
2019-02-04T21:40:21.043Z,78.90
2019-02-04T21:42:49.581Z,78.84
2019-02-04T21:45:19.797Z,78.47
2019-02-04T21:47:48.059Z,78.43
2019-02-04T21:50:27.183Z,78.84
2019-02-04T21:52:55.447Z,78.99
2019-02-04T21:55:24.347Z,79.61
2019-02-04T21:57:52.662Z,79.49
2019-02-04T22:00:25.940Z,80.18
2019-02-04T22:02:54.193Z,81.45
2019-02-04T22:05:27.447Z,81.93
2019-02-04T22:07:55.690Z,82.42
2019-02-04T22:10:25.888Z,82.33
2019-02-04T22:12:54.129Z,82.58
2019-02-04T22:15:22.486Z,82.64
2019-02-04T22:17:50.709Z,82.77
2019-02-04T22:20:20.111Z,83.28
2019-02-04T22:22:48.356Z,83.89
2019-02-04T22:25:22.230Z,83.66
2019-02-04T22:27:50.469Z,83.76
2019-02-04T22:30:20.662Z,83.47
2019-02-04T22:32:48.943Z,83.25
2019-02-04T22:35:17.211Z,83.71
2019-02-04T22:37:45.480Z,84.00
2019-02-04T22:40:17.064Z,83.72
2019-02-04T22:42:45.293Z,84.00
2019-02-04T22:45:17.447Z,84.35
2019-02-04T22:47:45.677Z,84.75
2019-02-04T22:50:21.668Z,84.82
2019-02-04T22:52:50.012Z,85.82
2019-02-04T22:55:18.701Z,85.82
2019-02-04T22:57:46.940Z,86.31
2019-02-04T23:00:40.608Z,87.00
2019-02-04T23:03:08.926Z,87.54
2019-02-04T23:05:37.514Z,88.57
2019-02-04T23:08:06.216Z,88.74
2019-02-04T23:10:34.463Z,88.91
2019-02-04T23:13:02.721Z,89.23
2019-02-04T23:15:30.978Z,89.45
2019-02-04T23:17:59.253Z,89.89
2019-02-04T23:20:27.783Z,90.45
2019-02-04T23:22:56.034Z,90.58
2019-02-04T23:25:24.297Z,90.58
2019-02-04T23:27:52.551Z,90.84
2019-02-04T23:30:20.878Z,91.45
2019-02-04T23:32:49.136Z,92.59
2019-02-04T23:35:17.407Z,93.38
2019-02-04T23:37:45.690Z,94.30
2019-02-04T23:40:16.348Z,94.82
2019-02-04T23:42:44.624Z,95.69
2019-02-04T23:45:12.997Z,96.18
2019-02-04T23:47:41.255Z,97.19
2019-02-04T23:50:16.293Z,98.24
2019-02-04T23:52:44.542Z,98.97
2019-02-04T23:55:13.749Z,99.52
2019-02-04T23:57:42.040Z,99.92
